SBI110 UNNT-UUDD
Flight info
| Callsign | SBI110 |
|---|---|
| Flight time | N/A |
| Altitude | 34000 |
| Route | OGAMA A308 OSNAB G828 SZ A487 OZGEL L158 LAGES/K0835F360 L158 APTAR T787 URAGO |
| Aircraft | B738/M-SDRWY/L |
Departure
| Time | 2026-05-05 22:28 |
|---|---|
| Airport | Novosibirsk Tolmachevo Airport (UNNT) |
Arrival
| Time | N/A |
|---|---|
| Airport | Domodedovo International Airport (UUDD) |
| Time | Latitude | Longitude | Altitude | Speed | Heading |
|---|---|---|---|---|---|
| 2026-05-05 21:59 | 55.00979 | 82.64661 | 372 ft | 0 kts | 193° |
| 2026-05-05 22:22 | 55.00977 | 82.64661 | 372 ft | 2 kts | 193° |
| 2026-05-05 22:23 | 55.00949 | 82.64648 | 372 ft | 5 kts | 201° |
| 2026-05-05 22:23 | 55.00929 | 82.64571 | 372 ft | 9 kts | 278° |
| 2026-05-05 22:23 | 55.00945 | 82.64431 | 372 ft | 13 kts | 283° |
| 2026-05-05 22:23 | 55.00969 | 82.64245 | 372 ft | 17 kts | 283° |
| 2026-05-05 22:24 | 55.00996 | 82.64050 | 372 ft | 12 kts | 296° |
| 2026-05-05 22:24 | 55.01076 | 82.63989 | 372 ft | 14 kts | 349° |
| 2026-05-05 22:24 | 55.01144 | 82.63897 | 372 ft | 14 kts | 262° |
| 2026-05-05 22:24 | 55.01123 | 82.63721 | 372 ft | 15 kts | 261° |
| 2026-05-05 22:25 | 55.01105 | 82.63528 | 372 ft | 16 kts | 261° |
| 2026-05-05 22:25 | 55.01086 | 82.63315 | 372 ft | 18 kts | 261° |
| 2026-05-05 22:25 | 55.01065 | 82.63091 | 372 ft | 19 kts | 261° |
| 2026-05-05 22:25 | 55.01044 | 82.62855 | 372 ft | 19 kts | 262° |
| 2026-05-05 22:26 | 55.01021 | 82.62606 | 372 ft | 19 kts | 260° |
| 2026-05-05 22:26 | 55.00996 | 82.62463 | 372 ft | 8 kts | 227° |
| 2026-05-05 22:26 | 55.00947 | 82.62397 | 372 ft | 8 kts | 224° |
| 2026-05-05 22:26 | 55.00963 | 82.62317 | 372 ft | 9 kts | 353° |
| 2026-05-05 22:27 | 55.01007 | 82.62402 | 372 ft | 11 kts | 85° |
| 2026-05-05 22:27 | 55.01013 | 82.62521 | 372 ft | 0 kts | 81° |
| 2026-05-05 22:27 | 55.01019 | 82.62582 | 372 ft | 26 kts | 82° |
| 2026-05-05 22:28 | 55.01089 | 82.63354 | 372 ft | 100 kts | 81° |
| 2026-05-05 22:28 | 55.01234 | 82.64930 | 372 ft | 160 kts | 81° |
| 2026-05-05 22:28 | 55.01424 | 82.67082 | 617 ft | 189 kts | 83° |
| 2026-05-05 22:28 | 55.01609 | 82.69285 | 1482 ft | 183 kts | 82° |
| 2026-05-05 22:29 | 55.01824 | 82.71499 | 1995 ft | 196 kts | 82° |
| 2026-05-05 22:29 | 55.02053 | 82.73983 | 2190 ft | 218 kts | 82° |
| 2026-05-05 22:29 | 55.02298 | 82.76676 | 2520 ft | 233 kts | 82° |
| 2026-05-05 22:29 | 55.02558 | 82.79564 | 3115 ft | 244 kts | 82° |
| 2026-05-05 22:30 | 55.02821 | 82.82474 | 3974 ft | 244 kts | 82° |
| 2026-05-05 22:30 | 55.02900 | 82.85391 | 4681 ft | 248 kts | 101° |
| 2026-05-05 22:30 | 55.02252 | 82.88158 | 5376 ft | 252 kts | 129° |
| 2026-05-05 22:30 | 55.00836 | 82.89993 | 5875 ft | 263 kts | 161° |
| 2026-05-05 22:31 | 54.99065 | 82.90563 | 6656 ft | 265 kts | 181° |
| 2026-05-05 22:31 | 54.97274 | 82.89696 | 7214 ft | 274 kts | 214° |
| 2026-05-05 22:31 | 54.96051 | 82.87231 | 8012 ft | 275 kts | 245° |
| 2026-05-05 22:31 | 54.95580 | 82.84051 | 8685 ft | 280 kts | 269° |
| 2026-05-05 22:32 | 54.96032 | 82.80753 | 9338 ft | 285 kts | 300° |
| 2026-05-05 22:32 | 54.97141 | 82.77977 | 10165 ft | 283 kts | 303° |
| 2026-05-05 22:32 | 54.97977 | 82.74833 | 10674 ft | 291 kts | 285° |
| 2026-05-05 22:32 | 54.98540 | 82.71489 | 11461 ft | 290 kts | 288° |
| 2026-05-05 22:33 | 54.99258 | 82.68174 | 12045 ft | 295 kts | 292° |
| 2026-05-05 22:33 | 55.00040 | 82.64881 | 12726 ft | 297 kts | 292° |
| 2026-05-05 22:33 | 55.00842 | 82.61523 | 13343 ft | 300 kts | 292° |
| 2026-05-05 22:33 | 55.01650 | 82.58179 | 13983 ft | 302 kts | 292° |
| 2026-05-05 22:34 | 55.02472 | 82.54803 | 14585 ft | 305 kts | 292° |
| 2026-05-05 22:34 | 55.03312 | 82.51354 | 15187 ft | 308 kts | 292° |
| 2026-05-05 22:34 | 55.04147 | 82.47922 | 15766 ft | 310 kts | 292° |
| 2026-05-05 22:34 | 55.05001 | 82.44413 | 16338 ft | 313 kts | 292° |
| 2026-05-05 22:35 | 55.05844 | 82.40943 | 16896 ft | 315 kts | 292° |
| 2026-05-05 22:35 | 55.06710 | 82.37378 | 17448 ft | 317 kts | 292° |
| 2026-05-05 22:35 | 55.07574 | 82.33814 | 17979 ft | 320 kts | 291° |
| 2026-05-05 22:35 | 55.08448 | 82.30201 | 18503 ft | 322 kts | 291° |
| 2026-05-05 22:36 | 55.09316 | 82.26610 | 19012 ft | 324 kts | 291° |
| 2026-05-05 22:36 | 55.10200 | 82.22942 | 19510 ft | 327 kts | 291° |
| 2026-05-05 22:36 | 55.11087 | 82.19261 | 19992 ft | 329 kts | 291° |
| 2026-05-05 22:36 | 55.11961 | 82.15622 | 20463 ft | 331 kts | 291° |
| 2026-05-05 22:37 | 55.12859 | 82.11858 | 20921 ft | 334 kts | 291° |
| 2026-05-05 22:37 | 55.13741 | 82.08132 | 21377 ft | 335 kts | 291° |
| 2026-05-05 22:37 | 55.14633 | 82.04363 | 21824 ft | 337 kts | 291° |
| 2026-05-05 22:37 | 55.15539 | 82.00545 | 22246 ft | 340 kts | 291° |
| 2026-05-05 22:38 | 55.16434 | 81.96756 | 22690 ft | 341 kts | 291° |
| 2026-05-05 22:38 | 55.17348 | 81.92899 | 23088 ft | 343 kts | 291° |
| 2026-05-05 22:38 | 55.18268 | 81.89033 | 23478 ft | 345 kts | 291° |
| 2026-05-05 22:38 | 55.19180 | 81.85140 | 23880 ft | 347 kts | 291° |
| 2026-05-05 22:39 | 55.20095 | 81.81216 | 24239 ft | 349 kts | 291° |
| 2026-05-05 22:39 | 55.21017 | 81.77299 | 24600 ft | 351 kts | 291° |
| 2026-05-05 22:39 | 55.21952 | 81.73310 | 24943 ft | 353 kts | 291° |
| 2026-05-05 22:39 | 55.22876 | 81.69344 | 25300 ft | 355 kts | 291° |
| 2026-05-05 22:40 | 55.23815 | 81.65340 | 25702 ft | 355 kts | 291° |
| 2026-05-05 22:40 | 55.24753 | 81.61343 | 26045 ft | 356 kts | 291° |
| 2026-05-05 22:40 | 55.25696 | 81.57309 | 26342 ft | 359 kts | 291° |
| 2026-05-05 22:40 | 55.26643 | 81.53266 | 26663 ft | 360 kts | 291° |
| 2026-05-05 22:41 | 55.27594 | 81.49211 | 26966 ft | 362 kts | 291° |
| 2026-05-05 22:41 | 55.28555 | 81.45081 | 27289 ft | 363 kts | 291° |
| 2026-05-05 22:41 | 55.29502 | 81.40987 | 27582 ft | 364 kts | 291° |
| 2026-05-05 22:41 | 55.30459 | 81.36874 | 27903 ft | 365 kts | 291° |
| 2026-05-05 22:42 | 55.31418 | 81.32735 | 28133 ft | 368 kts | 290° |
| 2026-05-05 22:42 | 55.32391 | 81.28544 | 28335 ft | 372 kts | 290° |
| 2026-05-05 22:42 | 55.33355 | 81.24353 | 28660 ft | 372 kts | 290° |
| 2026-05-05 22:42 | 55.34318 | 81.20149 | 28995 ft | 371 kts | 290° |
| 2026-05-05 22:43 | 55.35276 | 81.15928 | 29238 ft | 373 kts | 290° |
| 2026-05-05 22:43 | 55.36256 | 81.11681 | 29456 ft | 375 kts | 291° |
| 2026-05-05 22:43 | 55.37272 | 81.07411 | 29691 ft | 377 kts | 291° |
| 2026-05-05 22:43 | 55.38264 | 81.03205 | 29871 ft | 380 kts | 290° |
| 2026-05-05 22:44 | 55.39276 | 80.98851 | 29916 ft | 387 kts | 290° |
| 2026-05-05 22:44 | 55.41327 | 80.89921 | 30028 ft | 400 kts | 289° |
| 2026-05-05 22:45 | 55.43412 | 80.80710 | 30140 ft | 411 kts | 290° |
| 2026-05-05 22:45 | 55.45549 | 80.71246 | 30263 ft | 422 kts | 290° |
| 2026-05-05 22:46 | 55.47724 | 80.61608 | 30425 ft | 430 kts | 289° |
| 2026-05-05 22:46 | 55.49915 | 80.51656 | 30594 ft | 438 kts | 289° |
| 2026-05-05 22:47 | 55.52095 | 80.41601 | 30742 ft | 445 kts | 289° |
| 2026-05-05 22:47 | 55.53210 | 80.36509 | 30855 ft | 447 kts | 289° |
| 2026-05-05 22:47 | 55.54342 | 80.31380 | 31015 ft | 448 kts | 289° |
| 2026-05-05 22:47 | 55.55460 | 80.26273 | 31286 ft | 446 kts | 289° |
| 2026-05-05 22:48 | 55.56559 | 80.21157 | 31597 ft | 444 kts | 288° |
| 2026-05-05 22:48 | 55.57653 | 80.16048 | 31924 ft | 441 kts | 288° |
| 2026-05-05 22:48 | 55.58730 | 80.11060 | 32251 ft | 437 kts | 289° |
| 2026-05-05 22:48 | 55.59940 | 80.06137 | 32578 ft | 436 kts | 296° |
| 2026-05-05 22:49 | 55.61442 | 80.01498 | 32934 ft | 432 kts | 296° |
| 2026-05-05 22:49 | 55.62617 | 79.96699 | 33292 ft | 423 kts | 283° |
| 2026-05-05 22:49 | 55.63007 | 79.91603 | 33635 ft | 415 kts | 267° |
| 2026-05-05 22:49 | 55.62552 | 79.86633 | 33795 ft | 415 kts | 255° |
| 2026-05-05 22:50 | 55.61718 | 79.81750 | 33879 ft | 417 kts | 253° |
| 2026-05-05 22:50 | 55.60181 | 79.71810 | 34009 ft | 422 kts | 256° |
| 2026-05-05 22:51 | 55.58648 | 79.61760 | 34148 ft | 426 kts | 255° |
| 2026-05-05 22:51 | 55.57007 | 79.51683 | 34278 ft | 430 kts | 254° |
| 2026-05-05 22:52 | 55.55312 | 79.41544 | 34426 ft | 433 kts | 254° |
| 2026-05-05 22:52 | 55.54459 | 79.36423 | 34567 ft | 432 kts | 254° |
| 2026-05-05 22:52 | 55.53591 | 79.31384 | 34735 ft | 431 kts | 253° |
| 2026-05-05 22:52 | 55.52685 | 79.26314 | 34995 ft | 428 kts | 252° |
| 2026-05-05 22:53 | 55.51790 | 79.21345 | 35155 ft | 428 kts | 252° |
| 2026-05-05 22:53 | 55.50901 | 79.16319 | 35303 ft | 427 kts | 253° |
| 2026-05-05 22:53 | 55.50037 | 79.11380 | 35446 ft | 426 kts | 253° |
| 2026-05-05 22:53 | 55.49170 | 79.06415 | 35593 ft | 425 kts | 253° |
| 2026-05-05 22:54 | 55.48295 | 79.01437 | 35747 ft | 424 kts | 252° |
| 2026-05-05 22:54 | 55.46556 | 78.91550 | 35987 ft | 421 kts | 253° |
| 2026-05-05 22:55 | 55.44843 | 78.81840 | 35979 ft | 405 kts | 253° |
| 2026-05-05 22:55 | 55.43198 | 78.72434 | 35969 ft | 403 kts | 253° |
| 2026-05-05 22:56 | 55.41512 | 78.62979 | 35966 ft | 407 kts | 253° |
| 2026-05-05 22:56 | 55.39811 | 78.53535 | 35968 ft | 408 kts | 252° |
| 2026-05-05 22:57 | 55.38134 | 78.44064 | 35968 ft | 408 kts | 253° |
| 2026-05-05 22:57 | 55.36603 | 78.34509 | 35963 ft | 407 kts | 258° |
| 2026-05-05 22:58 | 55.36167 | 78.24549 | 35969 ft | 411 kts | 272° |
| 2026-05-05 22:58 | 55.36863 | 78.14606 | 35968 ft | 412 kts | 276° |
| 2026-05-05 22:59 | 55.37651 | 78.04691 | 35966 ft | 408 kts | 276° |
| 2026-05-05 22:59 | 55.38378 | 77.94752 | 35965 ft | 410 kts | 274° |
| 2026-05-05 23:00 | 55.39240 | 77.79829 | 35965 ft | 410 kts | 274° |
| 2026-05-05 23:00 | 55.39811 | 77.69901 | 35966 ft | 411 kts | 274° |
| 2026-05-05 23:01 | 55.40437 | 77.59896 | 35965 ft | 410 kts | 274° |
| 2026-05-05 23:01 | 55.41098 | 77.49979 | 35969 ft | 411 kts | 274° |
| 2026-05-05 23:02 | 55.41721 | 77.39967 | 35965 ft | 413 kts | 275° |
| 2026-05-05 23:02 | 55.42352 | 77.29975 | 35962 ft | 410 kts | 274° |
| 2026-05-05 23:03 | 55.42984 | 77.19954 | 35962 ft | 410 kts | 274° |
| 2026-05-05 23:03 | 55.43610 | 77.10034 | 35962 ft | 409 kts | 274° |
| 2026-05-05 23:04 | 55.44197 | 77.00097 | 35966 ft | 409 kts | 274° |
| 2026-05-05 23:04 | 55.44796 | 76.90128 | 35966 ft | 412 kts | 274° |
| 2026-05-05 23:05 | 55.45497 | 76.80080 | 35967 ft | 413 kts | 273° |
| 2026-05-05 23:05 | 55.46138 | 76.70042 | 35941 ft | 413 kts | 273° |
| 2026-05-05 23:06 | 55.46748 | 76.60055 | 35911 ft | 411 kts | 272° |
| 2026-05-05 23:06 | 55.47330 | 76.50035 | 35885 ft | 413 kts | 273° |
| 2026-05-05 23:07 | 55.47889 | 76.39996 | 35870 ft | 412 kts | 272° |
| 2026-05-05 23:07 | 55.48401 | 76.29927 | 35859 ft | 413 kts | 271° |
| 2026-05-05 23:08 | 55.48918 | 76.19857 | 35857 ft | 412 kts | 271° |
| 2026-05-05 23:08 | 55.49481 | 76.09821 | 35858 ft | 411 kts | 272° |
| 2026-05-05 23:09 | 55.50053 | 75.99832 | 35857 ft | 413 kts | 271° |
| 2026-05-05 23:09 | 55.50510 | 75.89763 | 35858 ft | 411 kts | 271° |
| 2026-05-05 23:10 | 55.50991 | 75.79686 | 35858 ft | 411 kts | 272° |
| 2026-05-05 23:10 | 55.51545 | 75.69642 | 35856 ft | 412 kts | 272° |
| 2026-05-05 23:11 | 55.52101 | 75.59629 | 35859 ft | 412 kts | 272° |
| 2026-05-05 23:11 | 55.52572 | 75.49531 | 35858 ft | 411 kts | 271° |
| 2026-05-05 23:12 | 55.52977 | 75.39487 | 35856 ft | 411 kts | 271° |
| 2026-05-05 23:12 | 55.53420 | 75.29481 | 35859 ft | 410 kts | 271° |
| 2026-05-05 23:13 | 55.53866 | 75.19443 | 35855 ft | 412 kts | 271° |
| 2026-05-05 23:13 | 55.54325 | 75.09361 | 35857 ft | 411 kts | 271° |
| 2026-05-05 23:14 | 55.54753 | 74.99302 | 35858 ft | 413 kts | 271° |
| 2026-05-05 23:14 | 55.55194 | 74.89178 | 35858 ft | 415 kts | 270° |
| 2026-05-05 23:15 | 55.55655 | 74.79024 | 35857 ft | 415 kts | 271° |
| 2026-05-05 23:15 | 55.56107 | 74.68895 | 35858 ft | 414 kts | 271° |
| 2026-05-05 23:16 | 55.56531 | 74.58783 | 35857 ft | 414 kts | 271° |
| 2026-05-05 23:16 | 55.56945 | 74.48628 | 35858 ft | 414 kts | 271° |
| 2026-05-05 23:17 | 55.57346 | 74.38477 | 35857 ft | 414 kts | 270° |
| 2026-05-05 23:17 | 55.57738 | 74.28317 | 35857 ft | 414 kts | 270° |
| 2026-05-05 23:18 | 55.58118 | 74.18237 | 35858 ft | 414 kts | 270° |
| 2026-05-05 23:18 | 55.58501 | 74.08070 | 35857 ft | 413 kts | 270° |
| 2026-05-05 23:19 | 55.58873 | 73.97967 | 35858 ft | 414 kts | 270° |
| 2026-05-05 23:19 | 55.59237 | 73.87841 | 35858 ft | 414 kts | 270° |
| 2026-05-05 23:20 | 55.59593 | 73.77676 | 35857 ft | 414 kts | 270° |
| 2026-05-05 23:20 | 55.59940 | 73.67529 | 35858 ft | 414 kts | 270° |
| 2026-05-05 23:21 | 55.60445 | 73.57405 | 35858 ft | 415 kts | 274° |
| 2026-05-05 23:21 | 55.61140 | 73.47324 | 35857 ft | 415 kts | 273° |
| 2026-05-05 23:22 | 55.61781 | 73.37121 | 35858 ft | 416 kts | 273° |
| 2026-05-05 23:22 | 55.62413 | 73.27023 | 35858 ft | 415 kts | 272° |
| 2026-05-05 23:23 | 55.63036 | 73.16866 | 35858 ft | 414 kts | 272° |
| 2026-05-05 23:23 | 55.63474 | 73.06725 | 35858 ft | 413 kts | 266° |
| 2026-05-05 23:24 | 55.63370 | 72.96568 | 35858 ft | 415 kts | 266° |
| 2026-05-05 23:24 | 55.63340 | 72.86356 | 35858 ft | 416 kts | 266° |
| 2026-05-05 23:25 | 55.63289 | 72.76092 | 35857 ft | 416 kts | 266° |
| 2026-05-05 23:25 | 55.63231 | 72.65897 | 35857 ft | 415 kts | 266° |
| 2026-05-05 23:26 | 55.63165 | 72.55726 | 35858 ft | 415 kts | 266° |
| 2026-05-05 23:26 | 55.63091 | 72.45505 | 35858 ft | 416 kts | 266° |
| 2026-05-05 23:27 | 55.63008 | 72.35247 | 35858 ft | 415 kts | 266° |
| 2026-05-05 23:27 | 55.62917 | 72.25083 | 35858 ft | 415 kts | 266° |
| 2026-05-05 23:28 | 55.62817 | 72.14863 | 35857 ft | 415 kts | 266° |
| 2026-05-05 23:28 | 55.62710 | 72.04697 | 35858 ft | 415 kts | 266° |
| 2026-05-05 23:29 | 55.62593 | 71.94476 | 35857 ft | 415 kts | 266° |
| 2026-05-05 23:29 | 55.62469 | 71.84303 | 35858 ft | 415 kts | 266° |
| 2026-05-05 23:30 | 55.62358 | 71.75816 | 35857 ft | 415 kts | 265° |
| 2026-05-05 23:30 | 55.62193 | 71.63889 | 35857 ft | 415 kts | 265° |
| 2026-05-05 23:31 | 55.62043 | 71.53719 | 35858 ft | 415 kts | 266° |
| 2026-05-05 23:31 | 55.61885 | 71.43498 | 35857 ft | 415 kts | 266° |
| 2026-05-05 23:32 | 55.61717 | 71.33301 | 35858 ft | 415 kts | 265° |
| 2026-05-05 23:32 | 55.61542 | 71.23128 | 35857 ft | 415 kts | 265° |
| 2026-05-05 23:33 | 55.61363 | 71.12993 | 35858 ft | 415 kts | 265° |
| 2026-05-05 23:33 | 55.61176 | 71.02745 | 35858 ft | 415 kts | 265° |
| 2026-05-05 23:34 | 55.60985 | 70.92625 | 35858 ft | 414 kts | 265° |
| 2026-05-05 23:34 | 55.60807 | 70.82428 | 35857 ft | 415 kts | 265° |
| 2026-05-05 23:35 | 55.60607 | 70.72247 | 35858 ft | 414 kts | 265° |
| 2026-05-05 23:35 | 55.60399 | 70.62096 | 35857 ft | 414 kts | 265° |
| 2026-05-05 23:36 | 55.60175 | 70.51948 | 35859 ft | 414 kts | 265° |
| 2026-05-05 23:36 | 55.59943 | 70.41775 | 35857 ft | 415 kts | 265° |
| 2026-05-05 23:37 | 55.59658 | 70.31605 | 35858 ft | 413 kts | 264° |
| 2026-05-05 23:37 | 55.59345 | 70.21487 | 35858 ft | 414 kts | 264° |
| 2026-05-05 23:38 | 55.59048 | 70.11340 | 35857 ft | 414 kts | 264° |
| 2026-05-05 23:38 | 55.58772 | 70.01241 | 35858 ft | 413 kts | 265° |
| 2026-05-05 23:39 | 55.58500 | 69.91093 | 35859 ft | 414 kts | 264° |
| 2026-05-05 23:39 | 55.58206 | 69.80948 | 35857 ft | 413 kts | 264° |
| 2026-05-05 23:40 | 55.57926 | 69.70846 | 35858 ft | 414 kts | 265° |
| 2026-05-05 23:40 | 55.57683 | 69.60674 | 35858 ft | 414 kts | 265° |
| 2026-05-05 23:41 | 55.57409 | 69.50517 | 35858 ft | 413 kts | 264° |
| 2026-05-05 23:41 | 55.57114 | 69.40359 | 35857 ft | 414 kts | 265° |
| 2026-05-05 23:42 | 55.56774 | 69.30222 | 35868 ft | 413 kts | 263° |
| 2026-05-05 23:42 | 55.56374 | 69.20139 | 35891 ft | 413 kts | 263° |
| 2026-05-05 23:43 | 55.56187 | 69.10008 | 35913 ft | 414 kts | 266° |
| 2026-05-05 23:43 | 55.56119 | 68.99866 | 35912 ft | 413 kts | 266° |
| 2026-05-05 23:44 | 55.55993 | 68.89754 | 35911 ft | 412 kts | 266° |
| 2026-05-05 23:44 | 55.55862 | 68.79688 | 35912 ft | 412 kts | 266° |
| 2026-05-05 23:45 | 55.55719 | 68.69624 | 35912 ft | 412 kts | 266° |
| 2026-05-05 23:45 | 55.55565 | 68.59515 | 35912 ft | 412 kts | 266° |
| 2026-05-05 23:46 | 55.55403 | 68.49410 | 35913 ft | 413 kts | 266° |
| 2026-05-05 23:46 | 55.55232 | 68.39278 | 35912 ft | 412 kts | 266° |
| 2026-05-05 23:47 | 55.55052 | 68.29191 | 35912 ft | 412 kts | 265° |
| 2026-05-05 23:47 | 55.54865 | 68.19099 | 35912 ft | 412 kts | 265° |
| 2026-05-05 23:48 | 55.54670 | 68.09044 | 35912 ft | 412 kts | 265° |
| 2026-05-05 23:48 | 55.54472 | 67.98969 | 35911 ft | 412 kts | 265° |
| 2026-05-05 23:49 | 55.54328 | 67.88860 | 35912 ft | 412 kts | 266° |
| 2026-05-05 23:49 | 55.54170 | 67.78730 | 35912 ft | 412 kts | 266° |
| 2026-05-05 23:50 | 55.54004 | 67.68697 | 35912 ft | 412 kts | 266° |
| 2026-05-05 23:50 | 55.53827 | 67.58536 | 35911 ft | 412 kts | 266° |
| 2026-05-05 23:51 | 55.53644 | 67.48475 | 35911 ft | 412 kts | 266° |
| 2026-05-05 23:51 | 55.53451 | 67.38392 | 35912 ft | 412 kts | 266° |
| 2026-05-05 23:52 | 55.53249 | 67.28264 | 35912 ft | 412 kts | 265° |
| 2026-05-05 23:52 | 55.53040 | 67.18198 | 35912 ft | 412 kts | 265° |
| 2026-05-05 23:53 | 55.52824 | 67.08156 | 35911 ft | 411 kts | 265° |
| 2026-05-05 23:53 | 55.52599 | 66.98128 | 35912 ft | 409 kts | 265° |
| 2026-05-05 23:54 | 55.52390 | 66.88120 | 35912 ft | 407 kts | 265° |
| 2026-05-05 23:54 | 55.52182 | 66.78168 | 35913 ft | 408 kts | 265° |
| 2026-05-05 23:55 | 55.51943 | 66.68127 | 35911 ft | 409 kts | 265° |
| 2026-05-05 23:55 | 55.51648 | 66.58176 | 35912 ft | 407 kts | 264° |
| 2026-05-05 23:56 | 55.51308 | 66.48216 | 35913 ft | 409 kts | 264° |
| 2026-05-05 23:56 | 55.51029 | 66.38181 | 35912 ft | 409 kts | 265° |
| 2026-05-05 23:57 | 55.50748 | 66.28205 | 35911 ft | 407 kts | 264° |
| 2026-05-05 23:57 | 55.50458 | 66.18258 | 35913 ft | 408 kts | 264° |
| 2026-05-05 23:58 | 55.50083 | 66.08279 | 35911 ft | 408 kts | 263° |
| 2026-05-05 23:58 | 55.49704 | 65.98361 | 35911 ft | 408 kts | 263° |
| 2026-05-05 23:59 | 55.49339 | 65.88357 | 35911 ft | 409 kts | 263° |
| 2026-05-05 23:59 | 55.48960 | 65.78414 | 35912 ft | 407 kts | 263° |
| 2026-05-06 00:00 | 55.48566 | 65.68462 | 35912 ft | 408 kts | 263° |
| 2026-05-06 00:00 | 55.48179 | 65.58454 | 35911 ft | 408 kts | 264° |
| 2026-05-06 00:01 | 55.47817 | 65.48574 | 35912 ft | 406 kts | 264° |
| 2026-05-06 00:01 | 55.47475 | 65.38608 | 35911 ft | 409 kts | 266° |
| 2026-05-06 00:02 | 55.47555 | 65.28603 | 35911 ft | 411 kts | 268° |
| 2026-05-06 00:02 | 55.47616 | 65.18498 | 35912 ft | 410 kts | 267° |
| 2026-05-06 00:03 | 55.47596 | 65.08561 | 35912 ft | 409 kts | 266° |
| 2026-05-06 00:03 | 55.47600 | 64.98529 | 35912 ft | 410 kts | 267° |
| 2026-05-06 00:04 | 55.47655 | 64.88470 | 35911 ft | 409 kts | 267° |
| 2026-05-06 00:04 | 55.47683 | 64.78518 | 35912 ft | 408 kts | 266° |
| 2026-05-06 00:05 | 55.47671 | 64.63487 | 35911 ft | 410 kts | 266° |
| 2026-05-06 00:06 | 55.47637 | 64.53484 | 35912 ft | 408 kts | 266° |
| 2026-05-06 00:06 | 55.47594 | 64.43493 | 35912 ft | 408 kts | 266° |
| 2026-05-06 00:07 | 55.47501 | 64.33553 | 35912 ft | 409 kts | 265° |
| 2026-05-06 00:07 | 55.47465 | 64.23507 | 35911 ft | 410 kts | 266° |
| 2026-05-06 00:08 | 55.47507 | 64.13496 | 35912 ft | 407 kts | 266° |
| 2026-05-06 00:08 | 55.47514 | 64.03538 | 35916 ft | 408 kts | 266° |
| 2026-05-06 00:09 | 55.47480 | 63.93552 | 35933 ft | 409 kts | 266° |
| 2026-05-06 00:09 | 55.47430 | 63.83538 | 35949 ft | 410 kts | 266° |
| 2026-05-06 00:10 | 55.47393 | 63.73532 | 35966 ft | 408 kts | 266° |
| 2026-05-06 00:10 | 55.47347 | 63.63606 | 35985 ft | 408 kts | 266° |
| 2026-05-06 00:11 | 55.47278 | 63.53589 | 35992 ft | 407 kts | 265° |
| 2026-05-06 00:11 | 55.47183 | 63.43611 | 35994 ft | 408 kts | 265° |
| 2026-05-06 00:12 | 55.47036 | 63.33631 | 35993 ft | 408 kts | 264° |
| 2026-05-06 00:12 | 55.46886 | 63.23645 | 35993 ft | 408 kts | 265° |
| 2026-05-06 00:13 | 55.46824 | 63.13659 | 35993 ft | 408 kts | 265° |
| 2026-05-06 00:13 | 55.46756 | 63.03708 | 35993 ft | 408 kts | 265° |
| 2026-05-06 00:14 | 55.46263 | 62.93749 | 35993 ft | 407 kts | 259° |
| 2026-05-06 00:14 | 55.45529 | 62.83876 | 35993 ft | 408 kts | 260° |
| 2026-05-06 00:15 | 55.44873 | 62.73996 | 35993 ft | 408 kts | 260° |
| 2026-05-06 00:15 | 55.44194 | 62.64048 | 35992 ft | 407 kts | 260° |
| 2026-05-06 00:16 | 55.43511 | 62.54185 | 35993 ft | 408 kts | 260° |
| 2026-05-06 00:16 | 55.42812 | 62.44311 | 35992 ft | 408 kts | 260° |
| 2026-05-06 00:17 | 55.42100 | 62.34416 | 35992 ft | 407 kts | 259° |
| 2026-05-06 00:17 | 55.41394 | 62.24514 | 35993 ft | 409 kts | 259° |
| 2026-05-06 00:18 | 55.40669 | 62.14616 | 35992 ft | 408 kts | 259° |
| 2026-05-06 00:18 | 55.39934 | 62.04739 | 35992 ft | 407 kts | 259° |
| 2026-05-06 00:19 | 55.39190 | 61.94929 | 35994 ft | 408 kts | 259° |
| 2026-05-06 00:19 | 55.38440 | 61.85085 | 35993 ft | 407 kts | 259° |
| 2026-05-06 00:20 | 55.37698 | 61.75175 | 35993 ft | 408 kts | 259° |
| 2026-05-06 00:20 | 55.36945 | 61.65364 | 35992 ft | 407 kts | 259° |
| 2026-05-06 00:21 | 55.36150 | 61.55533 | 35993 ft | 407 kts | 259° |
| 2026-05-06 00:21 | 55.35364 | 61.45641 | 35993 ft | 408 kts | 259° |
| 2026-05-06 00:22 | 55.34598 | 61.35827 | 35993 ft | 406 kts | 259° |
| 2026-05-06 00:22 | 55.33814 | 61.26041 | 35994 ft | 407 kts | 259° |
| 2026-05-06 00:23 | 55.33015 | 61.16220 | 35992 ft | 408 kts | 259° |
| 2026-05-06 00:23 | 55.32207 | 61.06297 | 35993 ft | 411 kts | 259° |
| 2026-05-06 00:24 | 55.31390 | 60.96339 | 35992 ft | 415 kts | 259° |
| 2026-05-06 00:24 | 55.30546 | 60.86326 | 35993 ft | 416 kts | 259° |
| 2026-05-06 00:25 | 55.29708 | 60.76402 | 35993 ft | 413 kts | 259° |
| 2026-05-06 00:25 | 55.28860 | 60.66438 | 35993 ft | 414 kts | 259° |
| 2026-05-06 00:26 | 55.27971 | 60.56437 | 35991 ft | 413 kts | 259° |
| 2026-05-06 00:26 | 55.27077 | 60.46527 | 35994 ft | 414 kts | 259° |
| 2026-05-06 00:27 | 55.26183 | 60.36538 | 35994 ft | 414 kts | 259° |
| 2026-05-06 00:27 | 55.25292 | 60.26593 | 35992 ft | 414 kts | 258° |
| 2026-05-06 00:28 | 55.24408 | 60.16624 | 35993 ft | 414 kts | 258° |
| 2026-05-06 00:28 | 55.23642 | 60.06697 | 35993 ft | 415 kts | 262° |
| 2026-05-06 00:29 | 55.23172 | 59.96630 | 35991 ft | 415 kts | 262° |
| 2026-05-06 00:29 | 55.22621 | 59.86530 | 35989 ft | 416 kts | 262° |
| 2026-05-06 00:30 | 55.22048 | 59.76498 | 35986 ft | 414 kts | 262° |
| 2026-05-06 00:30 | 55.21769 | 59.66435 | 35998 ft | 417 kts | 270° |
| 2026-05-06 00:31 | 55.22106 | 59.56300 | 36005 ft | 419 kts | 270° |
| 2026-05-06 00:31 | 55.22378 | 59.46125 | 36009 ft | 418 kts | 269° |
| 2026-05-06 00:32 | 55.22583 | 59.36029 | 36015 ft | 417 kts | 269° |
| 2026-05-06 00:32 | 55.22798 | 59.25823 | 36019 ft | 418 kts | 269° |
| 2026-05-06 00:33 | 55.23016 | 59.15667 | 36019 ft | 417 kts | 269° |
| 2026-05-06 00:33 | 55.23237 | 59.05518 | 36019 ft | 418 kts | 269° |
| 2026-05-06 00:34 | 55.23474 | 58.95352 | 36020 ft | 421 kts | 269° |
| 2026-05-06 00:34 | 55.23688 | 58.85118 | 36020 ft | 424 kts | 270° |
| 2026-05-06 00:35 | 55.23915 | 58.74756 | 36020 ft | 428 kts | 270° |
| 2026-05-06 00:35 | 55.24155 | 58.64339 | 36019 ft | 427 kts | 270° |
| 2026-05-06 00:36 | 55.24365 | 58.53942 | 36020 ft | 426 kts | 270° |
| 2026-05-06 00:36 | 55.24559 | 58.43627 | 36020 ft | 426 kts | 270° |
| 2026-05-06 00:37 | 55.24741 | 58.33257 | 36020 ft | 426 kts | 269° |
| 2026-05-06 00:37 | 55.24912 | 58.22896 | 36020 ft | 426 kts | 269° |
| 2026-05-06 00:38 | 55.25073 | 58.12547 | 36020 ft | 426 kts | 269° |
| 2026-05-06 00:38 | 55.25590 | 58.02178 | 36017 ft | 428 kts | 274° |
| 2026-05-06 00:39 | 55.26267 | 57.91880 | 36007 ft | 428 kts | 273° |
| 2026-05-06 00:39 | 55.26880 | 57.81527 | 35996 ft | 428 kts | 273° |
| 2026-05-06 00:40 | 55.27490 | 57.71184 | 35981 ft | 428 kts | 273° |
| 2026-05-06 00:40 | 55.28086 | 57.60797 | 35969 ft | 428 kts | 273° |
| 2026-05-06 00:41 | 55.28671 | 57.50449 | 35966 ft | 428 kts | 273° |
| 2026-05-06 00:41 | 55.29246 | 57.40076 | 35966 ft | 428 kts | 273° |
| 2026-05-06 00:42 | 55.29813 | 57.29686 | 35966 ft | 428 kts | 272° |
| 2026-05-06 00:42 | 55.30370 | 57.19325 | 35966 ft | 427 kts | 272° |
| 2026-05-06 00:43 | 55.30916 | 57.09000 | 35965 ft | 427 kts | 272° |
| 2026-05-06 00:43 | 55.31459 | 56.98613 | 35966 ft | 429 kts | 273° |
| 2026-05-06 00:44 | 55.31993 | 56.88205 | 35965 ft | 431 kts | 274° |
| 2026-05-06 00:44 | 55.32521 | 56.77728 | 35966 ft | 432 kts | 274° |
| 2026-05-06 00:45 | 55.33041 | 56.67263 | 35965 ft | 431 kts | 274° |
| 2026-05-06 00:45 | 55.33553 | 56.56753 | 35966 ft | 431 kts | 274° |
| 2026-05-06 00:46 | 55.34055 | 56.46270 | 35966 ft | 431 kts | 274° |
| 2026-05-06 00:46 | 55.34547 | 56.35797 | 35966 ft | 431 kts | 274° |
| 2026-05-06 00:47 | 55.35027 | 56.25383 | 35966 ft | 431 kts | 272° |
| 2026-05-06 00:47 | 55.35500 | 56.14923 | 35966 ft | 431 kts | 272° |
| 2026-05-06 00:48 | 55.35968 | 56.04395 | 35966 ft | 431 kts | 272° |
| 2026-05-06 00:48 | 55.36422 | 55.93956 | 35966 ft | 431 kts | 272° |
| 2026-05-06 00:49 | 55.36870 | 55.83459 | 35966 ft | 430 kts | 272° |
| 2026-05-06 00:49 | 55.37307 | 55.73009 | 35966 ft | 430 kts | 272° |
| 2026-05-06 00:50 | 55.37735 | 55.62545 | 35966 ft | 430 kts | 272° |
| 2026-05-06 00:50 | 55.38153 | 55.52117 | 35966 ft | 430 kts | 272° |
| 2026-05-06 00:51 | 55.38564 | 55.41651 | 35966 ft | 430 kts | 272° |
| 2026-05-06 00:51 | 55.38968 | 55.31110 | 35966 ft | 430 kts | 272° |
| 2026-05-06 00:52 | 55.39322 | 55.20685 | 35966 ft | 430 kts | 270° |
| 2026-05-06 00:52 | 55.39469 | 55.10183 | 35966 ft | 430 kts | 270° |
| 2026-05-06 00:53 | 55.39647 | 54.99660 | 35966 ft | 433 kts | 271° |
| 2026-05-06 00:53 | 55.39831 | 54.89017 | 35965 ft | 436 kts | 271° |
| 2026-05-06 00:54 | 55.40003 | 54.78363 | 35965 ft | 436 kts | 271° |
| 2026-05-06 00:54 | 55.40156 | 54.67776 | 35966 ft | 434 kts | 271° |
| 2026-05-06 00:55 | 55.40290 | 54.57215 | 35966 ft | 435 kts | 271° |
| 2026-05-06 00:55 | 55.40409 | 54.46543 | 35966 ft | 435 kts | 271° |
| 2026-05-06 00:56 | 55.40530 | 54.35966 | 35966 ft | 435 kts | 271° |
| 2026-05-06 00:56 | 55.40657 | 54.25314 | 35966 ft | 435 kts | 270° |
| 2026-05-06 00:57 | 55.40763 | 54.14699 | 35948 ft | 436 kts | 270° |
| 2026-05-06 00:57 | 55.40850 | 54.04062 | 35924 ft | 435 kts | 270° |
| 2026-05-06 00:58 | 55.40937 | 53.93436 | 35912 ft | 436 kts | 270° |
| 2026-05-06 00:58 | 55.41008 | 53.82750 | 35912 ft | 435 kts | 270° |
| 2026-05-06 00:59 | 55.41071 | 53.72129 | 35911 ft | 434 kts | 270° |
| 2026-05-06 00:59 | 55.41122 | 53.61566 | 35911 ft | 435 kts | 270° |
| 2026-05-06 01:00 | 55.41170 | 53.50917 | 35911 ft | 436 kts | 270° |
| 2026-05-06 01:00 | 55.41184 | 53.40306 | 35912 ft | 435 kts | 270° |
| 2026-05-06 01:01 | 55.41140 | 53.29668 | 35912 ft | 435 kts | 269° |
| 2026-05-06 01:01 | 55.41132 | 53.19031 | 35912 ft | 436 kts | 270° |
| 2026-05-06 01:02 | 55.41182 | 53.08395 | 35912 ft | 435 kts | 270° |
| 2026-05-06 01:02 | 55.41214 | 52.97785 | 35720 ft | 437 kts | 270° |
| 2026-05-06 01:03 | 55.41230 | 52.87152 | 35723 ft | 434 kts | 270° |
| 2026-05-06 01:03 | 55.41231 | 52.76492 | 35723 ft | 438 kts | 270° |
| 2026-05-06 01:04 | 55.41211 | 52.65802 | 35722 ft | 439 kts | 270° |
| 2026-05-06 01:04 | 55.41174 | 52.55080 | 35723 ft | 438 kts | 270° |
| 2026-05-06 01:05 | 55.41140 | 52.44369 | 35722 ft | 437 kts | 270° |